Wilmot, SD (57279)

7:32 AM CDT on May 25, 2015 (GMT -0500)
Linden Beach | | Change Station
CLOSE
Current Station
Personal Weather Station
Location: Corona, SD
Elevation: 974 ft
Nearby Weather Stations

Elev 974 ft 45.41 °N, 96.65 °W | Updated 60 seconds ago

Rain
Rain
58.1 °F
Feels Like 58.1 °F
N
4.3
Wind Variable Wind from NNW
Gusts 4.9 mph

Today
High -- | Low -- °F
--% Chance of Precip.
Yesterday
High -- | Low -- °F
Precip. -- in
5:47 AM 9:01 PM
Waxing Crescent, 48% visible
Pressure 29.69 in
Visibility 7.0 miles
Clouds Overcast 500 ft
Dew Point 58 °F
Humidity 99%
Rainfall 0.40 in
Snow Depth Not available.
UV 0 out of 12
Pollen .90 out of 12
Air Quality Not available.
Flu Activity Sporadic
METAR KVVV 251213Z AUTO 36007KT 7SM -RA OVC005 14/13 A2969 RMK AO2

More Conditions Fewer Conditions

Pressure 29.69 in
Visibility 7.0 miles
Clouds Overcast 500 ft
Dew Point 58 °F
Humidity 99%
Rainfall 0.40 in
Snow Depth Not available.
UV 0 out of 12
Pollen .90 out of 12
Air Quality Not available.
Flu Activity Sporadic
METAR KVVV 251213Z AUTO 36007KT 7SM -RA OVC005 14/13 A2969 RMK AO2

More Conditions Fewer Conditions

10-Day Weather Forecast

Almanac

Astronomy

May. 25, 2015 Rise Set
Actual Time
Civil Twilight
Nautical Twilight
Astronomical Twilight
Moon
Length of Visible Light
Length of Day
Tomorrow will be .
, % of the Moon is Illuminated

Today's Extremes

State Highs State Lows

Community

WunderPhotos

Upload Photos

1,823,986 photos uploaded!

WunderBlogs® & News

Nearby

Air Quality

  Air Quality AQ Index Pollutant
Not available.

Snow Depth

Station Depth Elevation

Earthquake Activity

City Distance Mag. Time & Date
Minimum magnitude displayed is 2.5.

Coastal Water Temperatures

Place Temperature

Stations

Nearby Weather Stations

Station Location Temp. Windchill Dew Point Humidity Wind Precip. Elev Updated Type